DW0805 Ramloese DK current weather conditions

sailwx.info

Wind from 121

Air temperature 13.9° C
Dewpoint 12.6° C

Last reported at 2014-Jul-12 23:45 UTC.
Time now 2014-Jul-13 00:12 UTC

Location: N 56°01' E 012°05'.
View on Google Maps.

See reports from other nearby stations

  
Tides Stations Pressure Air Temp Water Temp Dewpoint Dewpoint depression Visibility Wind Speed Wind Dir Waves Ship positions
date/time (UTC)wind fromknots sea level pressurealtimeterstation pressurevisibilityair tempwater tempwave heightnotes
2014-Jul-12 23:45 121 13.9
2014-Jul-12 23:35 121 13.9
2014-Jul-12 23:05 121 13.9
2014-Jul-12 22:55 121 0 gusting 2 13.9
2014-Jul-12 22:45 121 0 gusting 1 13.9
2014-Jul-12 22:35 121 0 gusting 1 13.9
2014-Jul-12 22:25 121 0 gusting 1 13.9
2014-Jul-12 22:15 121 0 gusting 5 13.9
2014-Jul-12 22:05 121 0 gusting 5 14.4
2014-Jul-12 21:55 325 0 gusting 5 14.4
2014-Jul-12 21:35 124 4 gusting 13 14.4
2014-Jul-12 21:25 122 6 gusting 17 15.6
2014-Jul-12 21:15 030 1 gusting 4 16.1
2014-Jul-12 20:55 031 0 gusting 2 16.7
2014-Jul-12 20:45 032 16.7
2014-Jul-12 20:35 032 0 gusting 1 17.2
2014-Jul-12 20:25 032 17.8
2014-Jul-12 20:15 032 0 gusting 4 17.8
2014-Jul-12 20:05 032 0 gusting 2 17.8
2014-Jul-12 19:45 045 0 gusting 4 18.3
2014-Jul-12 19:35 013 1 gusting 5 18.3
2014-Jul-12 19:15 357 1 gusting 6 18.3
2014-Jul-12 19:05 010 1 gusting 6 18.3
2014-Jul-12 18:55 004 1 gusting 6 18.3
2014-Jul-12 18:45 002 1 gusting 5 18.3
2014-Jul-12 18:35 356 2 gusting 5 18.3
2014-Jul-12 18:25 027 0 gusting 5 18.9
2014-Jul-12 18:15 025 0 gusting 6 18.9
2014-Jul-12 18:05 004 1 gusting 6 18.9
2014-Jul-12 17:45 006 0 gusting 5 19.4
2014-Jul-12 17:35 010 3 gusting 10 19.4
2014-Jul-12 17:15 348 2 gusting 6 20.0
2014-Jul-12 16:55 003 4 gusting 6 20.0
2014-Jul-12 16:35 017 1 gusting 6 20.0
2014-Jul-12 16:25 033 2 gusting 5 20.0
2014-Jul-12 16:15 018 1 gusting 5 20.6
2014-Jul-12 16:05 041 0 gusting 4 20.0
2014-Jul-12 15:55 047 2 gusting 6 20.0
2014-Jul-12 15:45 051 0 gusting 5 20.0
2014-Jul-12 15:35 358 2 gusting 5 20.0
2014-Jul-12 15:25 004 0 gusting 5 20.0
2014-Jul-12 15:15 012 0 gusting 5 20.0
2014-Jul-12 15:05 20.0
2014-Jul-12 14:55 003 1 gusting 7 20.0
2014-Jul-12 14:45 007 3 gusting 10 20.6
2014-Jul-12 14:35 016 1 gusting 7 20.6
2014-Jul-12 14:25 010 2 gusting 10 21.1
2014-Jul-12 14:15 325 3 gusting 8 21.7
2014-Jul-12 14:05 325 2 gusting 7 21.7
2014-Jul-12 13:45 325 2 gusting 8 21.7
2014-Jul-12 13:35 022 2 gusting 11 22.2
2014-Jul-12 13:25 026 5 gusting 11 22.2
2014-Jul-12 13:15 22.2
2014-Jul-12 13:05 027 4 gusting 10 22.2
2014-Jul-12 12:55 008 2 gusting 8 22.2
2014-Jul-12 12:45 002 2 gusting 7 23.3
2014-Jul-12 12:35 353 3 gusting 10 21.7
2014-Jul-12 12:25 008 5 gusting 10 21.7
2014-Jul-12 12:15 030 5 gusting 11 21.1
2014-Jul-12 12:05 001 1 gusting 8 21.1
2014-Jul-12 11:55 358 3 gusting 7 21.1
2014-Jul-12 11:45 021 3 gusting 7 21.1
2014-Jul-12 11:35 051 2 gusting 6 21.1
2014-Jul-12 11:25 058 2 gusting 6 21.1
2014-Jul-12 11:15 061 4 gusting 6 22.2
2014-Jul-12 11:05 022 4 gusting 10 21.1
2014-Jul-12 10:55 355 2 gusting 8 20.6
2014-Jul-12 10:25 011 2 gusting 7 20.0
2014-Jul-12 10:15 029 0 gusting 6 20.0
2014-Jul-12 09:55 021 1 gusting 6 20.6
2014-Jul-12 09:35 105 3 gusting 6 20.6
2014-Jul-12 09:25 054 2 gusting 6 22.2
2014-Jul-12 09:15 039 3 gusting 6 20.0
2014-Jul-12 09:05 054 0 gusting 4 20.0
2014-Jul-12 08:55 036 2 gusting 7 20.6
2014-Jul-12 08:45 027 2 gusting 6 20.6
2014-Jul-12 08:25 070 2 gusting 5 18.9
2014-Jul-12 06:25 066 4 gusting 6 18.9
2014-Jul-12 06:15 069 2 gusting 6 18.3
2014-Jul-12 06:05 071 0 gusting 5 17.8
2014-Jul-12 05:55 070 1 gusting 5 18.3
2014-Jul-12 05:45 070 1 gusting 6 18.9
2014-Jul-12 05:35 078 0 gusting 5 18.3
2014-Jul-12 05:25 079 1 gusting 5 17.8
2014-Jul-12 05:15 079 1 gusting 6 17.2
2014-Jul-12 05:05 082 1 gusting 6 17.2
2014-Jul-12 04:55 087 1 gusting 4 16.7
2014-Jul-12 04:35 088 1 gusting 4 15.6
2014-Jul-12 04:25 089 1 gusting 5 15.0
2014-Jul-12 04:15 091 3 gusting 5 14.4
2014-Jul-12 04:05 097 2 gusting 5 13.9
2014-Jul-12 03:55 097 1 gusting 4 13.3
2014-Jul-12 03:45 098 1 gusting 4 12.8
2014-Jul-12 03:25 101 0 gusting 4 11.7
2014-Jul-12 03:15 101 0 gusting 2 11.7
2014-Jul-12 03:05 101 0 gusting 2 11.7
2014-Jul-12 02:55 101 1 gusting 2 11.7
2014-Jul-12 02:45 104 0 gusting 2 11.7
2014-Jul-12 02:35 103 0 gusting 2 11.7
2014-Jul-12 02:25 104 0 gusting 2 12.2
2014-Jul-12 02:15 105 0 gusting 2 12.2
2014-Jul-12 02:05 105 12.2
2014-Jul-12 01:55 105 0 gusting 2 12.2
2014-Jul-12 01:45 105 0 gusting 2 12.8
2014-Jul-12 01:35 105 0 gusting 2 12.8
2014-Jul-12 01:25 105 0 gusting 2 13.3
2014-Jul-12 01:15 105 2 gusting 4 13.3
2014-Jul-12 01:05 105 0 gusting 4 13.9
2014-Jul-12 00:55 105 1 gusting 4 13.9
2014-Jul-12 00:45 116 1 gusting 4 13.9
2014-Jul-12 00:35 116 1 gusting 2 14.4
2014-Jul-12 00:25 116 0 gusting 2 14.4
2014-Jul-12 00:15 116 1 gusting 5 15.0
2014-Jul-12 00:05 128 1 gusting 5 15.0
2014-Jul-11 23:55 130 0 gusting 1 15.6
2014-Jul-11 23:45 130 0 gusting 1 15.6
2014-Jul-11 23:35 130 15.6
2014-Jul-11 23:25 130 15.6
2014-Jul-11 23:15 130 0 gusting 4 16.1
2014-Jul-11 23:05 130 2 gusting 5 16.1
2014-Jul-11 22:55 130 2 gusting 5 16.7
2014-Jul-11 22:45 130 4 gusting 6 16.7
2014-Jul-11 22:35 122 4 gusting 6 16.7
2014-Jul-11 22:25 129 2 gusting 6 16.7
2014-Jul-11 22:05 119 3 gusting 7 16.7
2014-Jul-11 21:55 128 3 gusting 7 16.7
2014-Jul-11 21:45 138 1 gusting 6 17.2
2014-Jul-11 21:35 137 2 gusting 7 17.2
2014-Jul-11 21:25 128 3 gusting 6 17.2
2014-Jul-11 21:15 128 4 gusting 8 17.2
2014-Jul-11 21:05 117 3 gusting 6 16.7
2014-Jul-11 20:55 117 5 gusting 6 17.2
2014-Jul-11 20:45 126 6 gusting 7 17.8
2014-Jul-11 20:35 120 5 gusting 11 18.3
2014-Jul-11 20:25 127 6 gusting 12 18.3
2014-Jul-11 20:15 142 6 gusting 13 18.3
2014-Jul-11 20:05 160 6 gusting 13 18.9
2014-Jul-11 19:55 117 6 gusting 13 18.9
2014-Jul-11 19:45 137 8 gusting 13 19.4
2014-Jul-11 19:35 144 5 gusting 12 19.4
2014-Jul-11 19:25 144 5 gusting 8 20.0
2014-Jul-11 18:55 259 1 gusting 6 21.1
2014-Jul-11 18:45 211 3 gusting 8 21.1
2014-Jul-11 18:35 205 5 gusting 10 21.7
2014-Jul-11 18:25 196 2 gusting 7 21.7
2014-Jul-11 18:15 325 2 gusting 11 22.2
2014-Jul-11 18:05 325 6 gusting 12 22.2
2014-Jul-11 17:55 325 8 gusting 14 22.8
2014-Jul-11 17:45 040 1 gusting 6 23.3
2014-Jul-11 17:35 325 2 gusting 7 23.9
2014-Jul-11 17:25 325 2 gusting 6 23.9
2014-Jul-11 17:15 014 2 gusting 6 24.4
2014-Jul-11 16:55 045 2 gusting 8 23.9
2014-Jul-11 16:45 325 3 gusting 8 23.9
2014-Jul-11 16:35 325 2 gusting 7 24.4
2014-Jul-11 16:25 045 3 gusting 12 25.0
2014-Jul-11 16:15 044 1 gusting 8 24.4
2014-Jul-11 16:05 002 2 gusting 8 25.0
2014-Jul-11 15:55 355 1 gusting 8 24.4
2014-Jul-11 15:45 028 3 gusting 10 25.0
2014-Jul-11 15:35 024 3 gusting 8 25.6
2014-Jul-11 15:25 345 3 gusting 7 25.0
2014-Jul-11 15:15 021 4 gusting 10 24.4
2014-Jul-11 14:55 018 4 gusting 10 26.1
2014-Jul-11 14:45 005 6 gusting 12 26.1
2014-Jul-11 14:35 358 4 gusting 8 25.6
2014-Jul-11 14:25 002 2 gusting 8 26.1
2014-Jul-11 14:15 001 4 gusting 8 25.6
2014-Jul-11 14:05 020 4 gusting 8 26.1
2014-Jul-11 13:55 009 2 gusting 7 26.1
2014-Jul-11 13:45 009 2 gusting 11 26.1
2014-Jul-11 13:35 325 4 gusting 11 26.1
2014-Jul-11 13:25 325 5 gusting 12 25.6
2014-Jul-11 13:15 325 4 gusting 12 26.1
2014-Jul-11 13:05 325 5 gusting 11 26.1
2014-Jul-11 12:55 019 6 gusting 13 25.6
2014-Jul-11 12:45 056 4 gusting 13 25.6
2014-Jul-11 12:35 009 4 gusting 13 25.0
2014-Jul-11 12:25 006 4 gusting 12 25.6
2014-Jul-11 12:15 048 5 gusting 13 25.0
2014-Jul-11 11:55 009 6 gusting 12 25.0
2014-Jul-11 11:45 034 4 gusting 11 25.6
2014-Jul-11 11:35 003 4 gusting 10 25.0
2014-Jul-11 11:25 010 4 gusting 10 25.6
2014-Jul-11 11:15 028 3 gusting 12 25.6
2014-Jul-11 11:05 347 5 gusting 10 25.0
2014-Jul-11 10:55 015 5 gusting 12 25.0
2014-Jul-11 10:45 325 5 gusting 10 25.0
2014-Jul-11 10:35 002 6 gusting 13 24.4
2014-Jul-11 10:25 023 4 gusting 11 25.0
2014-Jul-11 10:15 048 4 gusting 13 25.0
2014-Jul-11 09:55 023 6 gusting 11 25.0
2014-Jul-11 09:45 355 5 gusting 15 25.0
2014-Jul-11 09:25 053 6 gusting 13 23.3
2014-Jul-11 09:15 048 4 gusting 13 23.9
2014-Jul-11 09:05 076 6 gusting 11 23.3
2014-Jul-11 08:55 325 5 gusting 13 23.3
2014-Jul-11 08:45 325 6 gusting 10 23.3
2014-Jul-11 08:35 325 7 gusting 11 23.3
2014-Jul-11 08:25 325 7 gusting 11 23.3
2014-Jul-11 08:15 325 7 gusting 12 23.9
2014-Jul-11 08:05 325 4 gusting 11 23.9
2014-Jul-11 07:55 325 5 gusting 13 23.3
2014-Jul-11 07:45 071 7 gusting 12 22.8
2014-Jul-11 07:35 066 5 gusting 13 22.8
2014-Jul-11 07:25 072 6 gusting 10 22.8
2014-Jul-11 07:15 325 5 gusting 8 22.2
2014-Jul-11 07:05 325 6 gusting 10 22.2
2014-Jul-11 06:45 058 6 gusting 7 22.2
2014-Jul-11 06:35 046 3 gusting 8 22.2
2014-Jul-11 06:25 076 2 gusting 8 22.2
2014-Jul-11 06:05 061 5 gusting 7 21.7
2014-Jul-11 05:55 062 2 gusting 7 21.1
2014-Jul-11 05:45 070 5 gusting 8 20.6
2014-Jul-11 05:35 082 5 gusting 10 20.6
2014-Jul-11 05:25 061 5 gusting 7 20.6
2014-Jul-11 05:15 061 3 gusting 7 20.6
2014-Jul-11 04:55 067 1 gusting 5 20.0
2014-Jul-11 04:45 070 1 gusting 5 19.4
2014-Jul-11 04:35 070 1 gusting 5 18.9
2014-Jul-11 04:25 070 1 gusting 5 18.3
2014-Jul-11 04:15 070 1 gusting 5 17.2
2014-Jul-11 04:05 071 2 gusting 6 16.7
2014-Jul-11 03:55 071 1 gusting 6 16.7
2014-Jul-11 03:45 078 1 gusting 5 16.1
2014-Jul-11 03:35 078 1 gusting 5 16.1
2014-Jul-11 03:25 080 1 gusting 6 16.1
2014-Jul-11 03:15 080 3 gusting 6 16.1
2014-Jul-11 03:05 096 1 gusting 5 16.1
2014-Jul-11 02:55 097 1 gusting 4 16.1
2014-Jul-11 02:45 097 1 gusting 5 16.1
2014-Jul-11 02:35 097 2 gusting 5 16.1
2014-Jul-11 02:25 103 2 gusting 5 16.1
2014-Jul-11 02:15 103 1 gusting 4 16.1
2014-Jul-11 02:05 103 1 gusting 4 16.1
2014-Jul-11 01:55 103 1 gusting 6 16.1
2014-Jul-11 01:45 112 0 gusting 2 16.1
2014-Jul-11 01:35 112 1 gusting 4 16.7
2014-Jul-11 01:25 115 2 gusting 4 16.7
2014-Jul-11 01:15 115 1 gusting 5 16.7
2014-Jul-11 01:05 115 1 gusting 5 16.7
2014-Jul-11 00:55 115 0 gusting 2 16.7
2014-Jul-11 00:45 115 0 gusting 2 16.7
2014-Jul-11 00:35 115 0 gusting 1 17.2
2014-Jul-11 00:25 115 1 gusting 4 17.2
2014-Jul-11 00:15 115 0 gusting 2 17.2
2014-Jul-11 00:05 115 0 gusting 1 17.2